• Join FlightAware (Why Join?)
  • Login
  • US Flag 
07:52AM EDT


 

Airport Tracker/Info


-or-


 

Live Flight TrackerFlight Track Log ✈ ASQ4356 ✈ 13-Jul-2013 ✈ KIAH - KMAF

Flight Track Log - Related Links

Times and Time Zones

All times are in EDT time to prevent confusion due to time zone crossing. See the ASQ4356 flight status page for this flight to view local times or setup timezone preferences in your user account.

Time Position Orientation Groundspeed Altitude Reporting Facility
EDT Latitude Longitude Course Direction KTS MPH feet Rate Location/Type
08:02PM 29.9642 -95.3481 190° South 165 190 700  Level Houston Center
08:03PM 29.9333 -95.3542 190° South 197 227 2,000 1,500 Climbing Houston Center
08:04PM 29.9381 -95.4308 274° West 271 312 3,400 1,680 Climbing Houston Center
08:05PM 29.9600 -95.5250 285° West 263 303 5,900 2,220 Climbing Houston Center
08:06PM 29.9775 -95.6108 283° West 274 315 8,400 2,040 Climbing Houston Center
08:07PM 29.9956 -95.6967 284° West 276 318 10,200 1,260 Climbing Houston Center
08:08PM 30.0167 -95.7933 284° West 311 358 11,100 1,020 Climbing Houston Center
08:09PM 30.0422 -95.9233 283° West 345 397 12,400 1,380 Climbing Houston Center
08:10PM 30.0647 -96.0331 283° West 352 405 14,000 1,560 Climbing Houston Center
08:11PM 30.0806 -96.1264 281° West 341 392 15,700 1,860 Climbing Houston Center
08:13PM 30.0997 -96.2522 280° West 333 383 17,900 2,040 Climbing Houston Center
08:14PM 30.1153 -96.3517 280° West 321 369 19,900 1,620 Climbing Houston Center
08:15PM 30.1317 -96.4583 280° West 319 367 21,300 1,200 Climbing Houston Center
08:16PM 30.1483 -96.5656 280° West 332 382 22,400 1,020 Climbing Houston Center
08:17PM 30.1653 -96.6783 280° West 348 400 23,400 960 Climbing Houston Center
08:18PM 30.1819 -96.7936 280° West 357 411 24,400 960 Climbing Houston Center
08:19PM 30.1994 -96.9167 279° West 378 435 25,400 900 Climbing Houston Center
08:20PM 30.2181 -97.0392 280° West 383 441 26,300 900 Climbing Houston Center
08:21PM 30.2361 -97.1636 280° West 387 445 27,300 960 Climbing Houston Center
08:22PM 30.2550 -97.2886 280° West 390 449 28,300 900 Climbing Houston Center
08:23PM 30.2733 -97.4144 280° West 392 451 29,200 900 Climbing Houston Center
08:24PM 30.2911 -97.5411 279° West 393 452 30,200 960 Climbing Houston Center
08:25PM 30.3094 -97.6700 279° West 399 459 31,200 720 Climbing Houston Center
08:26PM 30.3289 -97.7989 280° West 402 463 31,700 360 Climbing Houston Center
08:27PM 30.3464 -97.9336 279° West 414 476 32,000 120 Climbing Houston Center
08:28PM 30.3667 -98.0758 279° West 434 499 32,000  Level Houston Center
08:29PM 30.4139 -98.2131 292° West 451 519 32,000  Level Houston Center
08:30PM 30.4692 -98.3483 295° West 456 525 32,000  Level Houston Center
08:31PM 30.5236 -98.4850 295° West 461 531 32,000  Level Houston Center
08:32PM 30.5886 -98.6428 296° West 459 528 32,000  Level Houston Center
08:33PM 30.6431 -98.7775 295° West 457 526 32,000  Level Houston Center
08:34PM 30.6956 -98.9131 294° West 455 524 32,000  Level Houston Center
08:35PM 30.7486 -99.0478 295° West 455 524 32,000  Level Houston Center
08:36PM 30.8050 -99.1869 295° West 459 528 32,000  Level Houston Center
08:37PM 30.8578 -99.3214 295° West 460 529 32,000  Level Houston Center
08:38PM 30.9103 -99.4572 294° West 461 531 32,000  Level Houston Center
08:39PM 30.9647 -99.5933 295° West 464 534 32,000  Level Houston Center
08:40PM 31.0161 -99.7289 294° West 472 543 32,000  Level Houston Center
08:41PM 31.0697 -99.8681 294° West 474 545 32,000  Level Houston Center
08:42PM 31.1233 -100.0047 295° West 480 552 32,000  Level Houston Center
08:43PM 31.1756 -100.1439 294° West 483 556 32,000  Level Houston Center
08:44PM 31.2392 -100.3056 295° West 467 537 32,000  Level Houston Center
08:45PM 31.2925 -100.4481 294° West 486 559 32,000 -300 Level Houston Center
08:46PM 31.3447 -100.5864 294° West 480 552 31,500 -1,140 Descending Houston Center
08:47PM 31.3875 -100.6983 294° West 461 531 29,800 -1,980 Descending Fort Worth Center
08:48PM 31.4381 -100.8342 294° West 456 525 27,800 -2,100 Descending Fort Worth Center
08:49PM 31.4886 -100.9675 294° West 450 518 25,600 -2,400 Descending Fort Worth Center
08:50PM 31.5411 -101.1036 294° West 450 518 23,000 -2,580 Descending Fort Worth Center
08:51PM 31.5894 -101.2372 293° West 450 518 20,500 -2,580 Descending Fort Worth Center
08:52PM 31.6358 -101.3561 295° West 429 494 17,900 -2,580 Descending Fort Worth Center
08:53PM 31.6781 -101.4728 293° West 405 466 15,400 -2,100 Descending Fort Worth Center
08:54PM 31.7242 -101.5897 295° West 398 458 13,700 -1,860 Descending Fort Worth Center
08:55PM 31.7711 -101.6844 300° West 370 426 11,700 -1,800 Descending Fort Worth Center
08:56PM 31.8181 -101.7747 301° West 345 397 10,100 -1,560 Descending Fort Worth Center
08:57PM 31.8611 -101.8575 301° West 319 367 8,600 -1,560 Descending Fort Worth Center
08:58PM 31.9042 -101.9378 302° West 301 346 7,000 -1,500 Descending Fort Worth Center
08:59PM 31.9453 -102.0183 301° West 296 341 5,600 -1,440 Descending Fort Worth Center